Time;durP1;ratioP1;P1;durP2;ratioP2;P2;SDS_P1;SDS_P2;PMS_P1;PMS_P2;Temp;Humidity;BMP_temperature;BMP_pressure;BME280_temperature;BME280_humidity;BME280_pressure;Samples;Min_cycle;Max_cycle;Signal;HPM_P1;HPM_P2
2022/07/23 00:00:12;;;;;;;4.97;1.73;;;15.80;99.90;;;;;;4103232;29;20070;-84
2022/07/23 00:02:13;;;;;;;6.10;1.85;;;15.80;99.90;;;;;;4116957;28;20061;-84
2022/07/23 00:04:13;;;;;;;6.00;2.80;;;15.80;99.90;;;;;;4103150;28;20496;-85
2022/07/23 00:06:14;;;;;;;5.05;2.38;;;15.70;99.90;;;;;;4101872;29;20047;-85
2022/07/23 00:08:15;;;;;;;6.40;2.75;;;15.70;99.90;;;;;;4102977;28;20047;-84
2022/07/23 00:10:16;;;;;;;6.75;2.65;;;15.70;99.90;;;;;;4133620;28;20430;-84
2022/07/23 00:12:17;;;;;;;6.88;2.53;;;15.60;99.90;;;;;;4102790;28;20106;-84
2022/07/23 00:14:17;;;;;;;5.32;2.78;;;15.60;99.90;;;;;;4101249;29;20047;-84
2022/07/23 00:16:18;;;;;;;4.85;2.85;;;15.50;99.90;;;;;;4101474;29;20051;-84
2022/07/23 00:18:19;;;;;;;7.53;2.63;;;15.40;99.90;;;;;;4096692;29;20039;-84
2022/07/23 00:20:20;;;;;;;3.80;2.42;;;15.50;99.90;;;;;;4102230;29;20059;-84
2022/07/23 00:22:21;;;;;;;6.35;2.60;;;15.40;99.90;;;;;;4105663;28;20518;-84
2022/07/23 00:24:21;;;;;;;5.45;2.60;;;15.40;99.90;;;;;;4107973;29;20082;-84
2022/07/23 00:26:22;;;;;;;6.25;2.70;;;15.40;99.90;;;;;;4118126;28;20051;-84
2022/07/23 00:28:23;;;;;;;5.45;3.28;;;15.40;99.90;;;;;;4122102;28;20030;-83
2022/07/23 00:30:24;;;;;;;4.90;2.63;;;15.40;99.90;;;;;;4118013;29;20458;-84
2022/07/23 00:32:24;;;;;;;5.13;2.78;;;15.30;99.90;;;;;;4106994;29;20043;-85
2022/07/23 00:34:25;;;;;;;5.57;2.50;;;15.30;99.90;;;;;;4103142;29;20531;-85
2022/07/23 00:36:26;;;;;;;4.55;2.50;;;15.30;99.90;;;;;;4101574;29;20043;-85
2022/07/23 00:38:26;;;;;;;6.43;2.55;;;15.20;99.90;;;;;;4101233;28;20118;-85
2022/07/23 00:40:29;;;;;;;4.50;2.50;;;15.20;99.90;;;;;;4102133;29;20036;-85
2022/07/23 00:42:31;;;;;;;4.85;2.63;;;15.20;99.90;;;;;;4101383;29;20122;-85
2022/07/23 00:44:32;;;;;;;7.07;2.60;;;15.10;99.90;;;;;;4101404;29;20062;-86
2022/07/23 00:46:33;;;;;;;4.75;2.42;;;15.10;99.90;;;;;;4085271;29;20048;-84
2022/07/23 00:48:33;;;;;;;5.45;2.63;;;15.10;99.90;;;;;;4102093;29;20039;-85
2022/07/23 00:50:34;;;;;;;9.07;4.05;;;15.10;99.90;;;;;;4102451;28;20039;-85
2022/07/23 00:52:36;;;;;;;6.85;2.90;;;15.10;99.90;;;;;;4102423;28;20054;-85
2022/07/23 00:54:38;;;;;;;5.00;2.38;;;15.10;99.90;;;;;;4101791;29;20058;-85
2022/07/23 00:56:40;;;;;;;6.07;2.78;;;15.10;99.90;;;;;;4103010;29;20480;-85
2022/07/23 00:58:42;;;;;;;3.75;2.30;;;15.10;99.90;;;;;;4102413;29;20062;-85
2022/07/23 01:00:43;;;;;;;4.57;2.72;;;15.10;99.90;;;;;;4117458;28;20046;-85
2022/07/23 01:02:44;;;;;;;3.97;2.42;;;15.20;99.90;;;;;;4101911;28;20098;-85
2022/07/23 01:04:45;;;;;;;7.13;2.70;;;15.20;99.90;;;;;;4102239;29;20043;-85
2022/07/23 01:06:46;;;;;;;9.13;3.63;;;15.20;99.90;;;;;;4102037;29;20551;-85
2022/07/23 01:08:47;;;;;;;5.35;2.38;;;15.20;99.90;;;;;;4100926;29;20051;-85
2022/07/23 01:10:51;;;;;;;8.38;2.80;;;15.20;99.90;;;;;;4085262;29;20056;-85
2022/07/23 01:12:51;;;;;;;6.45;2.60;;;15.20;99.90;;;;;;4101973;29;20055;-85
2022/07/23 01:14:59;;;;;;;7.03;2.95;;;15.20;99.90;;;;;;4101433;29;20540;-84
2022/07/23 01:17:00;;;;;;;3.08;2.35;;;15.20;99.90;;;;;;4101969;29;20492;-85
2022/07/23 01:19:01;;;;;;;6.95;2.35;;;15.20;99.90;;;;;;4094364;29;20050;-84
2022/07/23 01:21:02;;;;;;;4.68;2.40;;;15.20;99.90;;;;;;4084592;29;20058;-85
2022/07/23 01:23:04;;;;;;;9.82;3.72;;;15.20;99.90;;;;;;4101661;29;20050;-85
2022/07/23 01:25:06;;;;;;;8.13;3.47;;;15.10;99.90;;;;;;4101860;29;20490;-85
2022/07/23 01:27:06;;;;;;;5.32;2.22;;;15.20;99.90;;;;;;4101715;29;20203;-84
2022/07/23 01:29:07;;;;;;;4.40;2.17;;;15.10;99.90;;;;;;4101746;29;20496;-85
2022/07/23 01:31:08;;;;;;;6.53;2.50;;;15.10;99.90;;;;;;4100172;29;20051;-85
2022/07/23 01:33:08;;;;;;;3.83;2.20;;;15.20;99.90;;;;;;4103404;29;20465;-85
2022/07/23 01:35:11;;;;;;;5.47;2.17;;;15.20;99.90;;;;;;4106393;29;20525;-85
2022/07/23 01:37:12;;;;;;;4.68;2.20;;;15.20;99.90;;;;;;4131972;28;20628;-84
2022/07/23 01:39:13;;;;;;;7.10;2.35;;;15.30;99.90;;;;;;4119943;28;20069;-84
2022/07/23 01:41:14;;;;;;;6.28;2.15;;;15.30;99.90;;;;;;4133502;28;20057;-85
2022/07/23 01:43:14;;;;;;;4.68;2.28;;;15.30;99.90;;;;;;4133096;28;20426;-84
2022/07/23 01:45:15;;;;;;;4.32;2.53;;;15.30;99.90;;;;;;4148625;28;20046;-85
2022/07/23 01:47:16;;;;;;;3.15;1.95;;;15.30;99.90;;;;;;4116354;28;20104;-85
2022/07/23 01:49:17;;;;;;;3.33;2.13;;;15.30;99.90;;;;;;4148529;28;20041;-85
2022/07/23 01:51:18;;;;;;;6.88;2.65;;;15.20;99.90;;;;;;4115473;28;20054;-85
2022/07/23 01:53:18;;;;;;;8.02;2.58;;;15.20;99.90;;;;;;4148588;28;20140;-85
2022/07/23 01:55:19;;;;;;;2.78;1.83;;;15.20;99.90;;;;;;4148388;28;20457;-85
2022/07/23 01:57:20;;;;;;;5.28;2.47;;;15.20;99.90;;;;;;4148449;28;20054;-85
2022/07/23 01:59:21;;;;;;;3.95;2.13;;;15.20;99.90;;;;;;4100284;28;20051;-85
2022/07/23 02:01:22;;;;;;;6.90;2.60;;;15.20;99.90;;;;;;4115942;28;20111;-85
2022/07/23 02:03:23;;;;;;;4.57;2.30;;;15.20;99.90;;;;;;4148027;28;20144;-85
2022/07/23 02:05:24;;;;;;;8.48;2.40;;;15.20;99.90;;;;;;4147547;28;20041;-85
2022/07/23 02:07:25;;;;;;;4.28;2.55;;;15.20;99.90;;;;;;4147753;28;20053;-85
2022/07/23 02:09:25;;;;;;;5.20;2.60;;;15.20;99.90;;;;;;4116156;28;20519;-84
2022/07/23 02:11:26;;;;;;;5.97;2.00;;;15.20;99.90;;;;;;4116204;28;20055;-85
2022/07/23 02:13:29;;;;;;;3.97;2.28;;;15.20;99.90;;;;;;4133505;28;20045;-85
2022/07/23 02:15:29;;;;;;;2.53;1.80;;;15.20;99.90;;;;;;4132074;28;20522;-85
2022/07/23 02:17:30;;;;;;;7.78;2.00;;;15.20;99.90;;;;;;4129000;28;20121;-85
2022/07/23 02:19:32;;;;;;;7.00;2.55;;;15.30;99.90;;;;;;4131448;28;20065;-85
2022/07/23 02:21:33;;;;;;;5.65;2.03;;;15.30;99.90;;;;;;4131202;28;20042;-86
2022/07/23 02:23:34;;;;;;;7.32;2.30;;;15.30;99.90;;;;;;4099485;29;20106;-85
2022/07/23 02:25:34;;;;;;;3.42;1.67;;;15.30;99.90;;;;;;4139027;28;20053;-85
2022/07/23 02:27:36;;;;;;;6.35;2.53;;;15.30;99.90;;;;;;4115287;28;20415;-85
2022/07/23 02:29:37;;;;;;;6.55;1.92;;;15.30;99.90;;;;;;4115961;28;20053;-85
2022/07/23 02:31:37;;;;;;;3.25;1.90;;;15.20;99.90;;;;;;4132873;28;20479;-85
2022/07/23 02:33:38;;;;;;;6.18;2.28;;;15.20;99.90;;;;;;4147982;28;20045;-85
2022/07/23 02:35:39;;;;;;;2.35;1.67;;;15.20;99.90;;;;;;4133199;28;20042;-85
2022/07/23 02:37:39;;;;;;;2.67;1.70;;;15.20;99.90;;;;;;4147672;28;20053;-85
2022/07/23 02:39:40;;;;;;;4.93;1.80;;;15.20;99.90;;;;;;4132670;28;20089;-85
2022/07/23 02:41:41;;;;;;;4.35;1.92;;;15.20;99.90;;;;;;4147072;28;20050;-85
2022/07/23 02:43:41;;;;;;;6.05;1.95;;;15.20;99.90;;;;;;4114471;28;20049;-85
2022/07/23 02:45:42;;;;;;;5.75;1.75;;;15.20;99.90;;;;;;4147641;28;20482;-85
2022/07/23 02:47:43;;;;;;;3.67;1.70;;;15.20;99.90;;;;;;4115504;28;20054;-85
2022/07/23 02:49:44;;;;;;;2.40;1.67;;;15.20;99.90;;;;;;4132164;28;20129;-85
2022/07/23 02:51:44;;;;;;;3.53;1.85;;;15.20;99.90;;;;;;4164000;28;20049;-84
2022/07/23 02:53:46;;;;;;;3.50;1.80;;;15.20;99.90;;;;;;4147510;28;20077;-85
2022/07/23 02:55:47;;;;;;;4.68;1.70;;;15.10;99.90;;;;;;4132510;28;20061;-85
2022/07/23 02:57:47;;;;;;;5.28;1.90;;;15.10;99.90;;;;;;4132426;28;20129;-85
2022/07/23 02:59:49;;;;;;;6.10;2.03;;;15.10;99.90;;;;;;4147324;28;20057;-85
2022/07/23 03:01:50;;;;;;;6.13;2.30;;;15.10;99.90;;;;;;4115180;28;20050;-85
2022/07/23 03:03:50;;;;;;;6.45;1.75;;;15.10;99.90;;;;;;4132403;28;20509;-85
2022/07/23 03:05:51;;;;;;;3.25;1.98;;;15.10;99.90;;;;;;4147441;28;20056;-85
2022/07/23 03:07:52;;;;;;;7.60;1.65;;;15.10;99.90;;;;;;4132123;28;20042;-85
2022/07/23 03:09:53;;;;;;;5.10;1.75;;;15.10;99.90;;;;;;4132547;28;20506;-85
2022/07/23 03:11:53;;;;;;;4.25;1.92;;;15.10;99.90;;;;;;4132304;28;20101;-86
2022/07/23 03:13:54;;;;;;;7.10;2.08;;;15.00;99.90;;;;;;4146617;28;20041;-83
2022/07/23 03:15:55;;;;;;;3.83;2.22;;;14.90;99.90;;;;;;4146197;28;20057;-83
2022/07/23 03:17:56;;;;;;;4.45;2.15;;;14.90;99.90;;;;;;4108013;28;20043;-83
2022/07/23 03:19:56;;;;;;;5.00;1.92;;;14.90;99.90;;;;;;4115915;28;20050;-83
2022/07/23 03:21:57;;;;;;;6.75;2.28;;;14.90;99.90;;;;;;4131129;28;20050;-84
2022/07/23 03:23:58;;;;;;;6.20;2.50;;;14.90;99.90;;;;;;4116601;28;20490;-84
2022/07/23 03:25:58;;;;;;;3.80;2.22;;;14.90;99.90;;;;;;4131198;28;20086;-84
2022/07/23 03:27:59;;;;;;;7.10;2.10;;;15.00;99.90;;;;;;4134131;28;20065;-84
2022/07/23 03:30:00;;;;;;;3.85;2.15;;;15.00;99.90;;;;;;4132512;28;20054;-85
2022/07/23 03:32:02;;;;;;;7.57;2.17;;;14.90;99.90;;;;;;4132303;28;20122;-84
2022/07/23 03:34:03;;;;;;;7.53;2.88;;;14.90;99.90;;;;;;4132350;28;20491;-85
2022/07/23 03:36:04;;;;;;;5.13;1.98;;;14.90;99.90;;;;;;4132062;28;20038;-85
2022/07/23 03:38:05;;;;;;;3.28;1.73;;;14.90;99.90;;;;;;4146858;28;20533;-85
2022/07/23 03:40:06;;;;;;;4.22;1.77;;;14.90;99.90;;;;;;4132539;28;20519;-84
2022/07/23 03:42:07;;;;;;;3.65;1.95;;;14.90;99.90;;;;;;4131359;28;20132;-85
2022/07/23 03:44:09;;;;;;;3.80;2.08;;;14.90;99.90;;;;;;4131951;28;20108;-85
2022/07/23 03:46:09;;;;;;;5.03;1.90;;;14.80;99.90;;;;;;4132089;28;20058;-84
2022/07/23 03:48:10;;;;;;;3.38;2.03;;;14.80;99.90;;;;;;4146663;28;20561;-85
2022/07/23 03:50:11;;;;;;;6.93;2.92;;;14.80;99.90;;;;;;4131820;28;20919;-85
2022/07/23 03:52:12;;;;;;;5.93;2.10;;;14.80;99.90;;;;;;4147027;28;20061;-85
2022/07/23 03:54:13;;;;;;;8.07;2.78;;;14.70;99.90;;;;;;4114807;28;20050;-85
2022/07/23 03:56:13;;;;;;;7.70;2.50;;;14.80;99.90;;;;;;4132499;28;20042;-85
2022/07/23 03:58:14;;;;;;;2.65;2.03;;;14.80;99.90;;;;;;4147692;28;20136;-84
2022/07/23 04:00:15;;;;;;;5.00;2.38;;;14.80;99.90;;;;;;4132003;28;20054;-84
2022/07/23 04:02:16;;;;;;;5.10;2.20;;;14.80;99.90;;;;;;4132054;28;20137;-84
2022/07/23 04:04:16;;;;;;;5.18;1.92;;;14.80;99.90;;;;;;4146951;28;20395;-84
2022/07/23 04:06:17;;;;;;;5.15;1.92;;;14.80;99.90;;;;;;4132285;28;20042;-84
2022/07/23 04:08:18;;;;;;;2.47;1.73;;;14.80;99.90;;;;;;4131776;28;20380;-84
2022/07/23 04:10:20;;;;;;;7.28;2.33;;;14.80;99.90;;;;;;4131734;28;20052;-84
2022/07/23 04:12:21;;;;;;;7.50;2.10;;;14.80;99.90;;;;;;4132727;28;20050;-89
2022/07/23 04:14:21;;;;;;;7.43;2.47;;;14.80;99.90;;;;;;4146329;28;20038;-84
2022/07/23 04:16:22;;;;;;;7.00;2.13;;;14.90;99.90;;;;;;4131356;28;20096;-83
2022/07/23 04:18:23;;;;;;;5.60;2.95;;;14.90;99.90;;;;;;4120799;28;20484;-83
2022/07/23 04:20:24;;;;;;;5.00;2.03;;;14.90;99.90;;;;;;4114439;28;20141;-83
2022/07/23 04:22:25;;;;;;;6.80;2.63;;;15.00;99.90;;;;;;4120136;28;20050;-83
2022/07/23 04:24:25;;;;;;;5.45;2.30;;;14.90;99.90;;;;;;4132118;28;20038;-83
2022/07/23 04:26:26;;;;;;;7.15;2.40;;;15.00;99.90;;;;;;4147550;28;20056;-83
2022/07/23 04:28:27;;;;;;;4.00;2.47;;;15.00;99.90;;;;;;4134397;28;20053;-84
2022/07/23 04:30:28;;;;;;;7.78;2.50;;;15.00;99.90;;;;;;4137411;28;20069;-83
2022/07/23 04:32:28;;;;;;;5.15;2.88;;;15.00;99.90;;;;;;4137577;28;20042;-83
2022/07/23 04:34:30;;;;;;;6.28;2.83;;;15.00;99.90;;;;;;4136167;28;20050;-83
2022/07/23 04:36:31;;;;;;;9.07;2.85;;;15.00;99.90;;;;;;4117801;28;20133;-83
2022/07/23 04:38:32;;;;;;;7.72;2.90;;;14.90;99.90;;;;;;4137488;28;20070;-83
2022/07/23 04:40:33;;;;;;;7.28;3.10;;;15.00;99.90;;;;;;4151773;28;20093;-83
2022/07/23 04:42:34;;;;;;;4.55;2.38;;;14.90;99.90;;;;;;4134689;28;20045;-83
2022/07/23 04:44:34;;;;;;;6.70;3.17;;;15.00;99.90;;;;;;4134054;28;20498;-83
2022/07/23 04:46:36;;;;;;;7.90;2.83;;;15.00;99.90;;;;;;4149326;28;20100;-83
2022/07/23 04:48:37;;;;;;;7.22;3.10;;;15.00;99.90;;;;;;4133882;28;20045;-84
2022/07/23 04:50:38;;;;;;;9.02;2.60;;;15.10;99.90;;;;;;4134554;28;20050;-84
2022/07/23 04:52:38;;;;;;;6.82;2.58;;;15.10;99.90;;;;;;4134489;28;20044;-84
2022/07/23 04:54:39;;;;;;;7.53;2.90;;;15.10;99.90;;;;;;4134295;28;20046;-84
2022/07/23 04:56:40;;;;;;;5.65;2.75;;;15.10;99.90;;;;;;4148515;28;20410;-84
2022/07/23 04:58:41;;;;;;;5.55;3.08;;;15.10;99.90;;;;;;4116482;28;20523;-84
2022/07/23 05:00:42;;;;;;;7.82;2.90;;;15.10;99.90;;;;;;4133183;28;20043;-84
2022/07/23 05:02:43;;;;;;;5.88;2.72;;;15.10;99.90;;;;;;4133798;28;20038;-84
2022/07/23 05:04:43;;;;;;;6.03;2.40;;;15.10;99.90;;;;;;4149158;28;20057;-83
2022/07/23 05:06:44;;;;;;;7.18;2.65;;;15.10;99.90;;;;;;4124790;28;20067;-84
2022/07/23 05:08:45;;;;;;;3.65;2.10;;;15.10;99.90;;;;;;4117816;28;20046;-84
2022/07/23 05:10:46;;;;;;;5.05;2.38;;;15.10;99.90;;;;;;4118959;28;20109;-84
2022/07/23 05:12:47;;;;;;;4.25;2.80;;;15.10;99.90;;;;;;4134030;28;20050;-84
2022/07/23 05:14:47;;;;;;;5.68;2.47;;;15.10;99.90;;;;;;4133855;28;20042;-84
2022/07/23 05:16:48;;;;;;;5.47;2.53;;;15.10;99.90;;;;;;4134035;28;20106;-84
2022/07/23 05:18:50;;;;;;;4.07;2.33;;;15.20;99.90;;;;;;4132963;28;20057;-84
2022/07/23 05:20:51;;;;;;;7.68;2.65;;;15.20;99.90;;;;;;4133348;28;20046;-84
2022/07/23 05:22:52;;;;;;;4.95;2.20;;;15.20;99.90;;;;;;4116080;28;20459;-84
2022/07/23 05:24:53;;;;;;;3.33;2.55;;;15.20;99.90;;;;;;4116631;28;20526;-84
2022/07/23 05:26:54;;;;;;;4.32;2.70;;;15.30;99.90;;;;;;4133748;28;20042;-83
2022/07/23 05:28:54;;;;;;;3.88;2.40;;;15.30;99.90;;;;;;4117112;28;20422;-84
2022/07/23 05:30:56;;;;;;;4.22;2.30;;;15.20;99.90;;;;;;4110846;28;20051;-84
2022/07/23 05:32:57;;;;;;;5.18;2.10;;;15.30;99.90;;;;;;4126370;28;20047;-84
2022/07/23 05:34:58;;;;;;;4.63;2.63;;;15.40;99.90;;;;;;4118191;28;20050;-84
2022/07/23 05:36:58;;;;;;;4.53;2.40;;;15.40;99.90;;;;;;4132451;28;20202;-84
2022/07/23 05:38:59;;;;;;;3.28;2.10;;;15.20;99.90;;;;;;4116443;28;20058;-84
2022/07/23 05:41:01;;;;;;;4.28;2.22;;;15.40;99.90;;;;;;4120702;28;20054;-83
2022/07/23 05:43:01;;;;;;;4.78;1.85;;;15.50;99.90;;;;;;4122042;28;20482;-83
2022/07/23 05:45:02;;;;;;;4.82;1.95;;;15.50;99.90;;;;;;4133718;28;20042;-84
2022/07/23 05:47:03;;;;;;;4.30;2.22;;;15.50;99.90;;;;;;4133636;28;20550;-84
2022/07/23 05:49:04;;;;;;;3.15;2.10;;;15.50;99.90;;;;;;4148910;28;20050;-84
2022/07/23 05:51:06;;;;;;;4.07;2.00;;;15.70;99.90;;;;;;4116364;28;20125;-83
2022/07/23 05:53:07;;;;;;;4.25;1.85;;;15.70;99.90;;;;;;4133477;28;20046;-84
2022/07/23 05:55:09;;;;;;;4.07;1.98;;;15.80;99.90;;;;;;4133485;28;20438;-84
2022/07/23 05:57:09;;;;;;;4.88;1.95;;;15.90;99.90;;;;;;4116050;28;20066;-84
2022/07/23 05:59:12;;;;;;;6.35;2.85;;;15.90;99.90;;;;;;4099324;28;20051;-84
2022/07/23 06:01:13;;;;;;;6.53;1.75;;;16.00;99.90;;;;;;4117277;28;20039;-84
2022/07/23 06:03:14;;;;;;;3.97;1.80;;;16.00;99.90;;;;;;4142355;28;20046;-84
2022/07/23 06:05:14;;;;;;;6.28;2.22;;;16.00;99.90;;;;;;4126951;28;20089;-83
2022/07/23 06:07:15;;;;;;;2.05;1.58;;;16.00;99.90;;;;;;4166017;28;20057;-84
2022/07/23 06:09:16;;;;;;;5.05;1.88;;;16.10;99.90;;;;;;4152457;28;20142;-82
2022/07/23 06:11:17;;;;;;;6.65;1.70;;;16.10;99.90;;;;;;4168332;28;20054;-83
2022/07/23 06:13:19;;;;;;;6.22;1.60;;;16.00;99.90;;;;;;4150477;28;20042;-83
2022/07/23 06:15:19;;;;;;;5.13;1.63;;;16.00;99.90;;;;;;4161517;28;20137;-81
2022/07/23 06:17:20;;;;;;;4.13;1.58;;;15.90;99.90;;;;;;4134081;28;20070;-82
2022/07/23 06:19:22;;;;;;;2.75;1.40;;;15.90;99.90;;;;;;4134644;28;20047;-82
2022/07/23 06:21:23;;;;;;;4.68;1.77;;;15.90;99.90;;;;;;4134733;28;20039;-82
2022/07/23 06:23:24;;;;;;;4.00;1.83;;;15.90;99.90;;;;;;4134616;28;20045;-83
2022/07/23 06:25:25;;;;;;;5.50;1.30;;;15.90;99.90;;;;;;4149566;28;20042;-86
2022/07/23 06:27:27;;;;;;;2.13;1.10;;;15.90;99.90;;;;;;4117447;28;20384;-86
2022/07/23 06:29:28;;;;;;;3.35;1.35;;;15.90;99.90;;;;;;4151953;28;20069;-84
2022/07/23 06:31:28;;;;;;;3.95;1.75;;;15.90;99.90;;;;;;4134756;28;20052;-85
2022/07/23 06:33:29;;;;;;;3.30;1.40;;;15.90;99.90;;;;;;4110542;28;20468;-86
2022/07/23 06:35:30;;;;;;;5.20;1.20;;;15.90;99.90;;;;;;4125473;28;20050;-85
2022/07/23 06:37:31;;;;;;;1.83;1.17;;;15.90;99.90;;;;;;4142597;28;20038;-85
2022/07/23 06:39:32;;;;;;;2.17;1.20;;;16.00;99.90;;;;;;4136461;28;20058;-85
2022/07/23 06:41:34;;;;;;;3.17;1.30;;;16.10;99.90;;;;;;4134381;28;20081;-85
2022/07/23 06:43:35;;;;;;;3.05;1.38;;;16.20;99.90;;;;;;4118889;28;20055;-84
2022/07/23 06:45:35;;;;;;;3.15;1.20;;;16.30;99.90;;;;;;4139773;28;20073;-86
2022/07/23 06:47:38;;;;;;;4.15;1.23;;;16.30;99.90;;;;;;4142810;28;20049;-86
2022/07/23 06:49:41;;;;;;;2.83;1.20;;;16.40;99.90;;;;;;4129179;28;20050;-86
2022/07/23 06:51:41;;;;;;;3.80;0.98;;;16.50;99.90;;;;;;4134262;28;20043;-89
2022/07/23 06:53:46;;;;;;;3.65;2.08;;;16.50;99.90;;;;;;4162686;28;20030;-89
2022/07/23 06:55:47;;;;;;;3.80;0.93;;;16.60;99.90;;;;;;4139891;28;20467;-85
2022/07/23 06:57:49;;;;;;;3.72;1.23;;;16.70;99.90;;;;;;4137616;28;20107;-86
2022/07/23 06:59:49;;;;;;;3.70;0.90;;;16.70;99.90;;;;;;4139456;28;20110;-85
2022/07/23 07:01:50;;;;;;;2.38;1.30;;;16.70;99.90;;;;;;4148787;28;20061;-85
2022/07/23 07:03:51;;;;;;;3.80;0.93;;;16.80;99.90;;;;;;4124145;28;20089;-84
2022/07/23 07:05:53;;;;;;;4.20;1.10;;;16.80;99.90;;;;;;4125420;28;20050;-86
2022/07/23 07:07:55;;;;;;;3.63;1.40;;;16.90;99.90;;;;;;4146055;28;20098;-88
2022/07/23 07:09:55;;;;;;;2.33;1.20;;;17.00;99.90;;;;;;4144839;28;20037;-86
2022/07/23 07:11:56;;;;;;;2.85;1.20;;;17.00;99.90;;;;;;4143782;28;20073;-86
2022/07/23 07:13:57;;;;;;;1.00;0.80;;;17.10;99.90;;;;;;4142267;28;20061;-86
2022/07/23 07:16:05;;;;;;;3.05;0.80;;;17.20;99.90;;;;;;4142037;28;20039;-87
2022/07/23 07:18:05;;;;;;;2.90;0.60;;;17.30;99.90;;;;;;4130326;28;20043;-84
2022/07/23 07:20:07;;;;;;;4.18;0.82;;;17.50;99.90;;;;;;4128365;28;20069;-88
2022/07/23 07:22:09;;;;;;;2.50;0.85;;;17.60;99.90;;;;;;4132993;28;20047;-87
2022/07/23 07:24:10;;;;;;;2.53;0.98;;;17.80;99.90;;;;;;4087685;29;20134;-85
2022/07/23 07:26:12;;;;;;;1.35;0.60;;;17.90;99.90;;;;;;4134268;28;20048;-86
2022/07/23 07:28:13;;;;;;;1.77;0.50;;;17.90;99.90;;;;;;4121126;28;20051;-86
2022/07/23 07:30:14;;;;;;;1.17;0.47;;;18.00;99.90;;;;;;4143086;28;20046;-87
2022/07/23 07:32:14;;;;;;;1.73;0.40;;;18.10;99.90;;;;;;4107929;29;20058;-86
2022/07/23 07:34:16;;;;;;;0.30;0.30;;;18.20;99.90;;;;;;4122117;28;20087;-85
2022/07/23 07:36:18;;;;;;;0.88;0.35;;;18.30;99.90;;;;;;4120267;28;20071;-85
2022/07/23 07:38:19;;;;;;;1.67;0.32;;;18.40;99.90;;;;;;4152471;28;20137;-86
2022/07/23 07:40:21;;;;;;;0.70;0.50;;;18.60;99.90;;;;;;4119392;28;20042;-85
2022/07/23 07:42:21;;;;;;;1.08;0.75;;;18.70;99.90;;;;;;4135188;28;20054;-85
2022/07/23 07:44:23;;;;;;;3.78;0.40;;;19.00;99.50;;;;;;4118646;28;20047;-85
2022/07/23 07:46:27;;;;;;;1.25;0.50;;;19.10;98.80;;;;;;4135487;28;20116;-86
2022/07/23 07:48:28;;;;;;;1.55;0.47;;;19.10;98.30;;;;;;4139629;28;20049;-85
2022/07/23 07:50:28;;;;;;;0.50;0.20;;;19.00;98.10;;;;;;4137421;28;20081;-86
2022/07/23 07:52:29;;;;;;;0.82;0.30;;;18.90;98.00;;;;;;4120521;28;20051;-85
2022/07/23 07:54:30;;;;;;;1.55;0.43;;;18.90;98.00;;;;;;4106454;29;20428;-87
2022/07/23 07:56:30;;;;;;;1.85;0.32;;;18.90;98.10;;;;;;4141937;28;20042;-86
2022/07/23 07:58:32;;;;;;;0.82;0.55;;;18.80;97.90;;;;;;4140869;28;20030;-85
2022/07/23 08:00:34;;;;;;;0.85;0.40;;;18.90;97.50;;;;;;4140190;28;20088;-86
2022/07/23 08:02:46;;;;;;;1.75;0.30;;;18.90;97.40;;;;;;4143649;28;20117;-86
2022/07/23 08:04:48;;;;;;;0.63;0.40;;;18.90;96.90;;;;;;4145561;28;20461;-85
2022/07/23 08:06:49;;;;;;;0.30;0.30;;;19.00;97.10;;;;;;4142183;28;20073;-85
2022/07/23 08:08:50;;;;;;;0.75;0.45;;;19.00;96.90;;;;;;4142414;28;21571;-85
2022/07/23 08:10:50;;;;;;;0.95;0.40;;;19.20;96.80;;;;;;4121769;28;20051;-85
2022/07/23 08:12:53;;;;;;;0.93;0.30;;;19.40;96.60;;;;;;4122095;28;20105;-86
2022/07/23 08:14:53;;;;;;;1.52;0.40;;;19.50;96.40;;;;;;4139182;28;20563;-85
2022/07/23 08:16:54;;;;;;;1.98;0.30;;;19.50;96.20;;;;;;4156007;28;20049;-85
2022/07/23 08:18:56;;;;;;;0.20;0.20;;;19.50;96.10;;;;;;4139643;28;20561;-84
2022/07/23 08:20:57;;;;;;;0.70;0.38;;;19.50;96.00;;;;;;4139707;28;20046;-84
2022/07/23 08:23:02;;;;;;;2.65;0.20;;;19.50;95.80;;;;;;4106767;29;20098;-86
2022/07/23 08:25:03;;;;;;;1.85;0.52;;;19.50;95.60;;;;;;4153868;28;20049;-85
2022/07/23 08:27:04;;;;;;;0.90;0.30;;;19.50;95.90;;;;;;4141113;28;20379;-85
2022/07/23 08:29:04;;;;;;;1.40;0.20;;;19.50;95.70;;;;;;4120398;28;20053;-85
2022/07/23 08:31:05;;;;;;;0.90;0.20;;;19.50;95.60;;;;;;4138132;28;20085;-85
2022/07/23 08:33:11;;;;;;;1.33;0.30;;;19.50;95.40;;;;;;4119960;28;20049;-85
2022/07/23 08:35:11;;;;;;;2.38;0.40;;;19.70;95.50;;;;;;4137833;28;20513;-85
2022/07/23 08:37:12;;;;;;;2.38;0.35;;;19.80;95.60;;;;;;4120173;28;20129;-84
2022/07/23 08:39:13;;;;;;;0.52;0.30;;;20.00;95.10;;;;;;4136388;28;20088;-84
2022/07/23 08:41:16;;;;;;;0.68;0.40;;;20.10;94.70;;;;;;4109965;29;20055;-87
2022/07/23 08:43:19;;;;;;;1.27;0.20;;;20.10;94.30;;;;;;4148529;28;20057;-86
2022/07/23 08:45:22;;;;;;;1.15;0.30;;;20.20;94.00;;;;;;4145177;28;20050;-86
2022/07/23 08:47:24;;;;;;;0.85;0.40;;;20.30;93.70;;;;;;4119263;28;20423;-86
2022/07/23 08:49:27;;;;;;;2.53;1.27;;;20.40;93.40;;;;;;4142230;28;20047;-86
2022/07/23 08:51:28;;;;;;;1.80;0.30;;;20.40;92.90;;;;;;4141635;28;20049;-85
2022/07/23 08:53:32;;;;;;;0.90;0.40;;;20.50;93.30;;;;;;4141431;28;20093;-85
2022/07/23 08:55:32;;;;;;;1.00;0.32;;;20.60;93.10;;;;;;4157105;28;20057;-85
2022/07/23 08:57:35;;;;;;;2.72;0.50;;;20.70;92.60;;;;;;4145704;28;20038;-86
2022/07/23 08:59:35;;;;;;;0.60;0.30;;;20.90;91.90;;;;;;4144613;28;20511;-85
2022/07/23 09:01:37;;;;;;;4.05;0.68;;;21.00;91.60;;;;;;4143041;28;20057;-85
2022/07/23 09:03:39;;;;;;;0.20;0.20;;;21.30;91.70;;;;;;4146455;28;20038;-89
2022/07/23 09:05:40;;;;;;;1.45;0.32;;;21.40;91.80;;;;;;4150300;28;20455;-87
2022/07/23 09:08:05;;;;;;;1.27;0.30;;;21.60;91.50;;;;;;4128964;28;20133;-87
2022/07/23 09:10:10;;;;;;;0.63;0.40;;;21.60;90.50;;;;;;4147730;28;20121;-86
2022/07/23 09:12:11;;;;;;;1.90;0.40;;;21.50;90.80;;;;;;4153058;28;20065;-86
2022/07/23 09:14:12;;;;;;;1.15;0.68;;;21.50;90.80;;;;;;4152416;28;20030;-86
2022/07/23 09:16:26;;;;;;;6.47;0.55;;;21.60;90.60;;;;;;4118219;29;20491;-88
2022/07/23 09:18:32;;;;;;;0.95;0.20;;;21.50;88.80;;;;;;4148986;28;20053;-87
2022/07/23 09:20:33;;;;;;;1.75;0.32;;;21.60;89.50;;;;;;4130357;28;20055;-87
2022/07/23 09:22:35;;;;;;;1.38;0.45;;;21.70;89.00;;;;;;4133268;28;20657;-87
2022/07/23 09:24:36;;;;;;;1.60;0.40;;;21.60;88.50;;;;;;4127408;28;20161;-86
2022/07/23 09:26:46;;;;;;;3.80;1.42;;;21.60;88.00;;;;;;4160387;28;20054;-86
2022/07/23 09:29:12;;;;;;;0.52;0.32;;;21.60;87.00;;;;;;4164687;28;20053;-87
2022/07/23 09:31:13;;;;;;;2.25;0.50;;;21.60;86.90;;;;;;4165184;28;20050;-86
2022/07/23 09:33:15;;;;;;;1.63;0.35;;;21.60;86.90;;;;;;4150063;28;20049;-87
2022/07/23 09:35:17;;;;;;;3.25;0.70;;;21.60;85.70;;;;;;4116820;29;20051;-88
2022/07/23 09:37:19;;;;;;;1.13;0.40;;;21.60;85.30;;;;;;4151043;28;20057;-89
2022/07/23 09:39:32;;;;;;;1.08;0.25;;;21.50;85.50;;;;;;4143041;28;20094;-86
2022/07/23 09:41:44;;;;;;;1.80;0.43;;;21.50;85.40;;;;;;4142023;28;20053;-86
2022/07/23 09:43:56;;;;;;;2.05;0.90;;;21.50;84.20;;;;;;4146726;28;20077;-89
2022/07/23 09:46:25;;;;;;;2.28;0.50;;;21.50;84.40;;;;;;4146252;28;20053;-87
2022/07/23 09:48:26;;;;;;;0.75;0.30;;;21.50;80.70;;;;;;4148514;28;20038;-87
2022/07/23 09:50:27;;;;;;;0.88;0.20;;;21.50;83.80;;;;;;4167893;28;20040;-87
2022/07/23 09:52:30;;;;;;;1.00;0.30;;;21.50;83.70;;;;;;4124922;28;20161;-88
2022/07/23 09:54:34;;;;;;;1.25;0.32;;;21.50;83.10;;;;;;4140947;28;20046;-87
2022/07/23 09:56:36;;;;;;;1.88;0.32;;;21.50;83.40;;;;;;4145074;28;20038;-87
2022/07/23 09:58:43;;;;;;;1.67;0.40;;;21.50;83.10;;;;;;4152630;28;20035;-86
2022/07/23 10:00:49;;;;;;;0.73;0.35;;;21.60;82.90;;;;;;4137171;28;20027;-88
2022/07/23 10:02:51;;;;;;;4.13;0.70;;;21.70;83.40;;;;;;4153400;28;21922;-87
2022/07/23 10:04:57;;;;;;;1.60;0.57;;;22.00;83.60;;;;;;4137432;28;20069;-89
2022/07/23 10:07:00;;;;;;;4.55;0.45;;;22.10;83.00;;;;;;4169573;28;20321;-88
2022/07/23 10:09:02;;;;;;;4.38;0.43;;;22.20;83.00;;;;;;4152838;28;20034;-89
2022/07/23 10:11:04;;;;;;;1.48;0.65;;;22.20;83.00;;;;;;4153329;28;20030;-86
2022/07/23 10:13:52;;;;;;;1.00;0.50;;;22.30;82.50;;;;;;4153192;28;20030;-88
2022/07/23 10:15:26;;;;;;;0.50;0.38;;;22.40;82.10;;;;;;4135022;28;20094;-88
2022/07/23 10:17:28;;;;;;;2.42;0.30;;;22.50;82.10;;;;;;4153021;28;20034;-87
2022/07/23 10:19:32;;;;;;;5.30;0.95;;;22.60;82.10;;;;;;4153633;28;20042;-88
2022/07/23 10:21:46;;;;;;;7.18;0.50;;;22.60;81.50;;;;;;4153613;28;20097;-89
2022/07/23 10:24:09;;;;;;;2.85;0.50;;;22.60;81.50;;;;;;4153674;28;20062;-90
2022/07/23 10:26:41;;;;;;;1.48;0.30;;;22.60;80.90;;;;;;4136397;28;20030;-88
2022/07/23 10:29:24;;;;;;;1.05;0.30;;;22.40;80.00;;;;;;4152878;28;20041;-89
2022/07/23 10:31:38;;;;;;;3.10;0.63;;;22.30;79.30;;;;;;4133263;28;20463;-87
2022/07/23 10:34:15;;;;;;;1.15;0.40;;;22.20;79.90;;;;;;4110828;29;20086;-88
2022/07/23 10:36:44;;;;;;;0.68;0.40;;;22.00;81.10;;;;;;4133638;28;20054;-88